Ivory Ray — A8YK4 — position and weather

sailwx.info

Track history (hours):
 
Tides and Currents Weather Stations Pressure Air Temp Water Temp Dewpoint Dewpoint Depression Visibility Wind Speed Wind Dir Waves Ship Positions

Ivory Ray

Last reported at 2018-Jan-12 15:00 UTC. Time now 2018-Jan-18 15:37 UTC.
Position N 37°26' W 024°42'.

Length 147 m; draft 9.3 m.

Type: Ship. MMSI: 636015074.

Date/timePositionNaut miles runAvg speedWind from/ knotsBaromVisibWave heightAir tempDewpointWater temp
2018-Jan-12 15:00N 37°26' W 024°42'611.1
2018-Jan-12 14:30N 37°26' W 024°35'511.0
2018-Jan-12 14:00N 37°27' W 024°29'510.9
2018-Jan-12 13:30N 37°28' W 024°22'511.0
2018-Jan-12 13:00N 37°28' W 024°15'611.2
2018-Jan-12 12:30N 37°29' W 024°08'510.7
2018-Jan-12 12:01N 37°30' W 024°01'510.7
2018-Jan-12 11:30N 37°31' W 023°55'  
2018-Jan-08 08:44N 48°54' W 005°51'312.4
2018-Jan-08 08:30N 48°56' W 005°48'612.7
2018-Jan-08 08:00N 48°59' W 005°40'712.7
2018-Jan-08 07:29N 49°02' W 005°31'7613.8
2018-Jan-08 01:57N 49°41' W 003°50'1013.9
2018-Jan-08 01:12N 49°46' W 003°36'613.2
2018-Jan-08 00:44N 49°49' W 003°28'312.9
2018-Jan-08 00:29N 49°51' W 003°24'612.7
2018-Jan-08 00:00N 49°54' W 003°15'612.4
2018-Jan-07 23:30N 49°57' W 003°07'612.1
2018-Jan-07 23:00N 50°00' W 002°59'612.3
2018-Jan-07 22:30N 50°02' W 002°50'612.5
2018-Jan-07 22:00N 50°04' W 002°41'6815.3
2018-Jan-07 17:33N 50°23' W 000°58'217.0
2018-Jan-07 17:26N 50°23' W 000°55'1115.9
2018-Jan-07 16:46N 50°26' W 000°39'415.5
2018-Jan-07 16:29N 50°27' W 000°32'715.1
2018-Jan-07 16:00N 50°28' W 000°21'714.2
2018-Jan-07 15:30N 50°30' W 000°11'713.8
2018-Jan-07 15:00N 50°32' W 000°00'713.4
2018-Jan-07 14:30N 50°34' E 000°10'612.8
2018-Jan-07 14:00N 50°35' E 000°20'612.4
2018-Jan-07 13:30N 50°37' E 000°29'612.1
2018-Jan-07 13:00N 50°39' E 000°38'612.8
2018-Jan-07 12:30N 50°43' E 000°46'713.3
2018-Jan-07 12:00N 50°47' E 000°55'714.4
2018-Jan-07 11:31N 50°51' E 001°04'815.3
2018-Jan-07 11:01N 50°57' E 001°12'816.2
2018-Jan-07 10:31N 51°02' E 001°22'816.5
2018-Jan-07 10:01N 51°07' E 001°32'816.2
2018-Jan-07 09:31N 51°12' E 001°42'714.7
2018-Jan-07 09:00N 51°18' E 001°48'713.9
2018-Jan-07 08:30N 51°25' E 001°53'713.4
2018-Jan-07 08:01N 51°30' E 001°59'713.4
2018-Jan-07 07:30N 51°35' E 002°07'6011.8
2018-Jan-07 02:27N 52°04' E 003°31'613.9
2018-Jan-07 02:00N 52°03' E 003°41'611.8
2018-Jan-07 01:30N 52°02' E 003°51'1110.7
2018-Jan-07 00:30N 51°59' E 004°07'611.7
2018-Jan-07 00:00N 51°55' E 004°15'3 6.0
2018-Jan-06 23:30N 51°53' E 004°19'0 0.0
2018-Jan-06 23:00N 51°53' E 004°19'0 0.0
2018-Jan-06 22:30N 51°53' E 004°19'0 0.0
2018-Jan-06 22:00N 51°53' E 004°19'0 0.0
2018-Jan-06 21:30N 51°53' E 004°19'0 0.0
2018-Jan-06 20:57N 51°53' E 004°19'0 0.0
2018-Jan-06 20:21N 51°53' E 004°19'0 0.0
2018-Jan-06 19:54N 51°53' E 004°19'0 0.0
2018-Jan-06 19:30N 51°53' E 004°19'0 0.0
2018-Jan-06 19:00N 51°53' E 004°19'0 0.0
2018-Jan-06 18:30N 51°53' E 004°19'0 0.0
2018-Jan-06 17:57N 51°53' E 004°19'0 0.0
2018-Jan-06 17:27N 51°53' E 004°19'0 0.0
2018-Jan-06 17:00N 51°53' E 004°19'0 0.0
2018-Jan-06 16:30N 51°53' E 004°19'0 0.0
2018-Jan-06 16:00N 51°53' E 004°19'0 0.0
2018-Jan-06 15:30N 51°53' E 004°19'0 0.0
2018-Jan-06 15:00N 51°53' E 004°19'0 0.0
2018-Jan-06 14:30N 51°53' E 004°19'0 0.0
2018-Jan-06 13:57N 51°53' E 004°19'0 0.0
2018-Jan-06 13:24N 51°53' E 004°19'0 0.0
2018-Jan-06 13:00N 51°53' E 004°19'0 0.0
2018-Jan-06 12:27N 51°53' E 004°19'0 0.0
2018-Jan-06 12:00N 51°53' E 004°19'0 0.0
2018-Jan-06 11:30N 51°53' E 004°19'0 0.0
2018-Jan-06 10:51N 51°53' E 004°19'0 0.0
2018-Jan-06 10:27N 51°53' E 004°19'0 0.0
2018-Jan-06 10:00N 51°53' E 004°19'0 0.0
2018-Jan-06 09:27N 51°53' E 004°19'0 0.0
2018-Jan-06 08:57N 51°53' E 004°19'0 0.0
2018-Jan-06 08:27N 51°53' E 004°19'0 0.0
2018-Jan-06 08:00N 51°53' E 004°19'0 0.0
2018-Jan-06 07:30N 51°53' E 004°19'0 0.0
2018-Jan-06 06:57N 51°53' E 004°19'0 0.0
2018-Jan-06 06:24N 51°53' E 004°19'0 0.0
2018-Jan-06 06:00N 51°53' E 004°19'0 0.0
2018-Jan-06 05:30N 51°53' E 004°19'0 0.0
2018-Jan-06 04:57N 51°53' E 004°19'0 0.0
2018-Jan-06 04:24N 51°53' E 004°19'0 0.0
2018-Jan-06 03:48N 51°53' E 004°19'0 0.0
2018-Jan-06 03:30N 51°53' E 004°19'0 0.0
2018-Jan-06 02:57N 51°53' E 004°19'0 0.0
2018-Jan-06 02:30N 51°53' E 004°19'0 0.0
2018-Jan-06 02:00N 51°53' E 004°19'0 0.0
2018-Jan-06 01:30N 51°53' E 004°19'0 0.0
2018-Jan-06 01:00N 51°53' E 004°19'0 0.0
2018-Jan-06 00:30N 51°53' E 004°19'0 0.0
2018-Jan-05 23:57N 51°53' E 004°19'0 0.0
2018-Jan-05 23:30N 51°53' E 004°19'0 0.0
2018-Jan-05 22:57N 51°53' E 004°19'0 0.0
2018-Jan-05 22:30N 51°53' E 004°19'0 0.0
2018-Jan-05 22:00N 51°53' E 004°19'0 0.0
2018-Jan-05 21:30N 51°53' E 004°19'0 0.0
2018-Jan-05 21:00N 51°53' E 004°19'0 0.1
2018-Jan-05 20:30N 51°53' E 004°19'1 2.6
2018-Jan-05 20:00N 51°53' E 004°21'0 0.9
2018-Jan-05 19:30N 51°53' E 004°20'0 0.0
2018-Jan-05 18:59N 51°53' E 004°20'0 0.0
2018-Jan-05 18:29N 51°53' E 004°20'0 0.0
2018-Jan-05 17:17N 51°53' E 004°20'0 0.0
2018-Jan-05 16:59N 51°53' E 004°20'0 0.0
2018-Jan-05 16:29N 51°53' E 004°20'0 0.0
2018-Jan-05 15:53N 51°53' E 004°20'0 0.0
2018-Jan-05 15:26N 51°53' E 004°20'0 0.0
2018-Jan-05 14:41N 51°53' E 004°20'0 0.0
2018-Jan-05 14:26N 51°53' E 004°20'0 0.0
2018-Jan-05 13:53N 51°53' E 004°20'0 0.0
2018-Jan-05 13:26N 51°53' E 004°20'0 0.0
2018-Jan-05 12:59N 51°53' E 004°20'0 0.0
2018-Jan-05 12:29N 51°53' E 004°20'0 0.0
2018-Jan-05 11:50N 51°53' E 004°20'0 0.0
2018-Jan-05 11:23N 51°53' E 004°20'0 0.0
2018-Jan-05 10:56N 51°53' E 004°20'0 0.0
2018-Jan-05 10:29N 51°53' E 004°20'0 0.0
2018-Jan-05 09:59N 51°53' E 004°20'0 0.0
2018-Jan-05 09:05N 51°53' E 004°20'0 0.1
2018-Jan-05 08:59N 51°53' E 004°20'0 0.0
2018-Jan-05 08:29N 51°53' E 004°20'0 0.0
2018-Jan-05 07:56N 51°53' E 004°20'0 0.0
2018-Jan-05 07:26N 51°53' E 004°20'0 0.0
2018-Jan-05 06:59N 51°53' E 004°20'0 0.0
2018-Jan-05 06:26N 51°53' E 004°20'0 0.0
2018-Jan-05 05:59N 51°53' E 004°20'0 0.0
2018-Jan-05 05:29N 51°53' E 004°20'0 0.0
2018-Jan-05 04:50N 51°53' E 004°20'0 0.0
2018-Jan-05 04:29N 51°53' E 004°20'0 0.0
2018-Jan-05 03:59N 51°53' E 004°20'0 0.0
2018-Jan-05 03:29N 51°53' E 004°20'0 0.0
2018-Jan-05 02:59N 51°53' E 004°20'0 0.0
2018-Jan-05 02:29N 51°53' E 004°20'0 0.0
2018-Jan-05 01:59N 51°53' E 004°20'0 0.0
2018-Jan-05 01:26N 51°53' E 004°20'0 0.0
2018-Jan-05 00:59N 51°53' E 004°20'0 0.0
2018-Jan-05 00:29N 51°53' E 004°20'0 0.0
2018-Jan-04 23:59N 51°53' E 004°20'0 0.0
2018-Jan-04 23:23N 51°53' E 004°20'0 0.0
2018-Jan-04 22:53N 51°53' E 004°20'0 0.0
2018-Jan-04 22:26N 51°53' E 004°20'0 0.0
2018-Jan-04 21:59N 51°53' E 004°20'0 0.0
2018-Jan-04 21:29N 51°53' E 004°20'0 0.0
2018-Jan-04 20:47N 51°53' E 004°20'0 0.0
2018-Jan-04 20:29N 51°53' E 004°20'0 0.0
2018-Jan-04 19:59N 51°53' E 004°20'0 0.0
2018-Jan-04 19:26N 51°53' E 004°20'0 0.0
2018-Jan-04 18:53N 51°53' E 004°20'0 0.0
2018-Jan-04 18:29N 51°53' E 004°20'0 0.0
2018-Jan-04 17:59N 51°53' E 004°20'0 0.0
2018-Jan-04 17:23N 51°53' E 004°20'0 0.0
2018-Jan-04 16:59N 51°53' E 004°20'0 0.0
2018-Jan-04 16:29N 51°53' E 004°20'0 0.0
2018-Jan-04 15:59N 51°53' E 004°20'0 0.0
2018-Jan-04 15:26N 51°53' E 004°20'0 0.0
2018-Jan-04 14:59N 51°53' E 004°20'0 0.0
2018-Jan-04 14:26N 51°53' E 004°20'0 0.0
2018-Jan-04 13:59N 51°53' E 004°20'0 0.0
2018-Jan-04 13:29N 51°53' E 004°20'0 0.0
2018-Jan-04 12:59N 51°53' E 004°20'0 0.0
2018-Jan-04 12:29N 51°53' E 004°20'0 0.0
2018-Jan-04 11:56N 51°53' E 004°20'0 0.0
2018-Jan-04 11:29N 51°53' E 004°20'0 0.0
2018-Jan-04 10:59N 51°53' E 004°20'0 0.0
2018-Jan-04 10:29N 51°53' E 004°20'0 0.0
2018-Jan-04 09:59N 51°53' E 004°20'0 0.0
2018-Jan-04 09:29N 51°53' E 004°20'0 0.0
2018-Jan-04 08:56N 51°53' E 004°20'0 0.0
2018-Jan-04 08:29N 51°53' E 004°20'0 0.0
2018-Jan-04 07:59N 51°53' E 004°20'0 0.0
2018-Jan-04 07:29N 51°53' E 004°20'0 0.0
2018-Jan-04 06:59N 51°53' E 004°20'0 0.0
2018-Jan-04 06:29N 51°53' E 004°20'0 0.0
2018-Jan-04 05:59N 51°53' E 004°20'0 0.0
2018-Jan-04 05:29N 51°53' E 004°20'0 0.0
2018-Jan-04 04:56N 51°53' E 004°20'0 0.0
2018-Jan-04 04:29N 51°53' E 004°20'0 0.0
2018-Jan-04 03:59N 51°53' E 004°20'0 0.0
2018-Jan-04 03:29N 51°53' E 004°20'0 0.0
2018-Jan-04 02:59N 51°53' E 004°20'0 0.0
2018-Jan-04 02:29N 51°53' E 004°20'0 0.0
2018-Jan-04 01:59N 51°53' E 004°20'0 0.0
2018-Jan-04 01:29N 51°53' E 004°20'0 0.0
2018-Jan-04 00:59N 51°53' E 004°20'0 0.0
2018-Jan-04 00:29N 51°53' E 004°20'0 0.0
2018-Jan-03 23:59N 51°53' E 004°20'0 0.0
2018-Jan-03 23:29N 51°53' E 004°20'0 0.0
2018-Jan-03 22:59N 51°53' E 004°20'0 0.0
2018-Jan-03 22:29N 51°53' E 004°20'0 0.0
2018-Jan-03 21:59N 51°53' E 004°20'0 0.0
2018-Jan-03 21:29N 51°53' E 004°20'0 0.0
2018-Jan-03 20:50N 51°53' E 004°20'0 0.0
2018-Jan-03 20:26N 51°53' E 004°20'0 0.0
2018-Jan-03 19:47N 51°53' E 004°20'0 0.0
2018-Jan-03 19:29N 51°53' E 004°20'0 0.0
2018-Jan-03 18:59N 51°53' E 004°20'0 0.0
2018-Jan-03 18:23N 51°53' E 004°20'0 0.0
2018-Jan-03 17:59N 51°53' E 004°20'0 0.0
2018-Jan-03 17:29N 51°53' E 004°20'0 0.0
2018-Jan-03 16:53N 51°53' E 004°20'0 0.0
2018-Jan-03 16:23N 51°53' E 004°20'0 0.0
2018-Jan-03 15:59N 51°53' E 004°20'0 0.0
2018-Jan-03 15:29N 51°53' E 004°20'0 0.0
2018-Jan-03 14:56N 51°53' E 004°20'0 0.0
2018-Jan-03 14:26N 51°53' E 004°20'0 0.0
2018-Jan-03 13:59N 51°53' E 004°20'0 0.0
2018-Jan-03 13:29N 51°53' E 004°20'0 0.0
2018-Jan-03 12:56N 51°53' E 004°20'0 0.0
2018-Jan-03 12:29N 51°53' E 004°20'0 0.0
2018-Jan-03 11:59N 51°53' E 004°20'0 0.0
2018-Jan-03 11:29N 51°53' E 004°20'0 0.0
2018-Jan-03 10:59N 51°53' E 004°20'0 0.0
2018-Jan-03 10:23N 51°53' E 004°20'0 0.0
2018-Jan-03 09:56N 51°53' E 004°20'0 0.0
2018-Jan-03 09:29N 51°53' E 004°20'0 0.0
2018-Jan-03 08:53N 51°53' E 004°20'0 0.0
2018-Jan-03 08:29N 51°53' E 004°20'0 0.0
2018-Jan-03 07:53N 51°53' E 004°20'0 0.0
2018-Jan-03 07:29N 51°53' E 004°20'0 0.0
2018-Jan-03 06:56N 51°53' E 004°20'0 0.0
2018-Jan-03 06:29N 51°53' E 004°20'0 0.0
2018-Jan-03 05:59N 51°53' E 004°20'0 0.0
2018-Jan-03 05:23N 51°53' E 004°20'0 0.0
2018-Jan-03 04:59N 51°53' E 004°20'0 0.0
2018-Jan-03 04:29N 51°53' E 004°20'0 0.0
2018-Jan-03 03:56N 51°53' E 004°20'0 0.0
2018-Jan-03 03:29N 51°53' E 004°20'0 0.0
2018-Jan-03 02:59N 51°53' E 004°20'0 0.0
2018-Jan-03 02:29N 51°53' E 004°20'0 0.0
2018-Jan-03 01:59N 51°53' E 004°20'0 0.0
2018-Jan-03 01:29N 51°53' E 004°20'0 0.0
2018-Jan-03 00:59N 51°53' E 004°20'0 0.0
2018-Jan-03 00:29N 51°53' E 004°20'0 0.0
2018-Jan-02 23:53N 51°53' E 004°20'0 0.0
2018-Jan-02 23:26N 51°53' E 004°20'0 0.0
2018-Jan-02 22:59N 51°53' E 004°20'0 0.0
2018-Jan-02 22:26N 51°53' E 004°20'0 0.0
2018-Jan-02 21:59N 51°53' E 004°20'0 0.0
2018-Jan-02 21:29N 51°53' E 004°20'0 0.0
2018-Jan-02 20:59N 51°53' E 004°20'0 0.0
2018-Jan-02 20:20N 51°53' E 004°20'0 0.0
2018-Jan-02 19:59N 51°53' E 004°20'0 0.0
2018-Jan-02 19:29N 51°53' E 004°20'0 0.0
2018-Jan-02 18:53N 51°53' E 004°20'0 0.0
2018-Jan-02 18:26N 51°53' E 004°20'0 0.0
2018-Jan-02 17:59N 51°53' E 004°20'0 0.0
2018-Jan-02 17:23N 51°53' E 004°20'0 0.0
2018-Jan-02 16:59N 51°53' E 004°20'0 0.0
2018-Jan-02 16:26N 51°53' E 004°20'0 0.0
2018-Jan-02 15:59N 51°53' E 004°20'0 0.0
2018-Jan-02 15:29N 51°53' E 004°20'  
Track history (hours):
 
Tides and Currents Weather Stations Pressure Air Temp Water Temp Dewpoint Dewpoint Depression Visibility Wind Speed Wind Dir Waves Ship Positions

Ivory Ray

Last reported at 2018-Jan-12 15:00 UTC. Time now 2018-Jan-18 15:37 UTC.
Position N 37°26' W 024°42'.

Length 147 m; draft 9.3 m.

Type: Ship. MMSI: 636015074.

Date/timePositionNaut miles runAvg speedWind from/ knotsBaromVisibWave heightAir tempDewpointWater temp
2018-Jan-12 15:00N 37°26' W 024°42'611.1
2018-Jan-12 14:30N 37°26' W 024°35'511.0
2018-Jan-12 14:00N 37°27' W 024°29'510.9
2018-Jan-12 13:30N 37°28' W 024°22'511.0
2018-Jan-12 13:00N 37°28' W 024°15'611.2
2018-Jan-12 12:30N 37°29' W 024°08'510.7
2018-Jan-12 12:01N 37°30' W 024°01'510.7
2018-Jan-12 11:30N 37°31' W 023°55'  
2018-Jan-08 08:44N 48°54' W 005°51'312.4
2018-Jan-08 08:30N 48°56' W 005°48'612.7
2018-Jan-08 08:00N 48°59' W 005°40'712.7
2018-Jan-08 07:29N 49°02' W 005°31'7613.8
2018-Jan-08 01:57N 49°41' W 003°50'1013.9
2018-Jan-08 01:12N 49°46' W 003°36'613.2
2018-Jan-08 00:44N 49°49' W 003°28'312.9
2018-Jan-08 00:29N 49°51' W 003°24'612.7
2018-Jan-08 00:00N 49°54' W 003°15'612.4
2018-Jan-07 23:30N 49°57' W 003°07'612.1
2018-Jan-07 23:00N 50°00' W 002°59'612.3
2018-Jan-07 22:30N 50°02' W 002°50'612.5
2018-Jan-07 22:00N 50°04' W 002°41'6815.3
2018-Jan-07 17:33N 50°23' W 000°58'217.0
2018-Jan-07 17:26N 50°23' W 000°55'1115.9
2018-Jan-07 16:46N 50°26' W 000°39'415.5
2018-Jan-07 16:29N 50°27' W 000°32'715.1
2018-Jan-07 16:00N 50°28' W 000°21'714.2
2018-Jan-07 15:30N 50°30' W 000°11'713.8
2018-Jan-07 15:00N 50°32' W 000°00'713.4
2018-Jan-07 14:30N 50°34' E 000°10'612.8
2018-Jan-07 14:00N 50°35' E 000°20'612.4
2018-Jan-07 13:30N 50°37' E 000°29'612.1
2018-Jan-07 13:00N 50°39' E 000°38'612.8
2018-Jan-07 12:30N 50°43' E 000°46'713.3
2018-Jan-07 12:00N 50°47' E 000°55'714.4
2018-Jan-07 11:31N 50°51' E 001°04'815.3
2018-Jan-07 11:01N 50°57' E 001°12'816.2
2018-Jan-07 10:31N 51°02' E 001°22'816.5
2018-Jan-07 10:01N 51°07' E 001°32'816.2
2018-Jan-07 09:31N 51°12' E 001°42'714.7
2018-Jan-07 09:00N 51°18' E 001°48'713.9
2018-Jan-07 08:30N 51°25' E 001°53'713.4
2018-Jan-07 08:01N 51°30' E 001°59'713.4
2018-Jan-07 07:30N 51°35' E 002°07'6011.8
2018-Jan-07 02:27N 52°04' E 003°31'613.9
2018-Jan-07 02:00N 52°03' E 003°41'611.8
2018-Jan-07 01:30N 52°02' E 003°51'1110.7
2018-Jan-07 00:30N 51°59' E 004°07'611.7
2018-Jan-07 00:00N 51°55' E 004°15'3 6.0
2018-Jan-06 23:30N 51°53' E 004°19'0 0.0
2018-Jan-06 23:00N 51°53' E 004°19'0 0.0
2018-Jan-06 22:30N 51°53' E 004°19'0 0.0
2018-Jan-06 22:00N 51°53' E 004°19'0 0.0
2018-Jan-06 21:30N 51°53' E 004°19'0 0.0
2018-Jan-06 20:57N 51°53' E 004°19'0 0.0
2018-Jan-06 20:21N 51°53' E 004°19'0 0.0
2018-Jan-06 19:54N 51°53' E 004°19'0 0.0
2018-Jan-06 19:30N 51°53' E 004°19'0 0.0
2018-Jan-06 19:00N 51°53' E 004°19'0 0.0
2018-Jan-06 18:30N 51°53' E 004°19'0 0.0
2018-Jan-06 17:57N 51°53' E 004°19'0 0.0
2018-Jan-06 17:27N 51°53' E 004°19'0 0.0
2018-Jan-06 17:00N 51°53' E 004°19'0 0.0
2018-Jan-06 16:30N 51°53' E 004°19'0 0.0
2018-Jan-06 16:00N 51°53' E 004°19'0 0.0
2018-Jan-06 15:30N 51°53' E 004°19'0 0.0
2018-Jan-06 15:00N 51°53' E 004°19'0 0.0
2018-Jan-06 14:30N 51°53' E 004°19'0 0.0
2018-Jan-06 13:57N 51°53' E 004°19'0 0.0
2018-Jan-06 13:24N 51°53' E 004°19'0 0.0
2018-Jan-06 13:00N 51°53' E 004°19'0 0.0
2018-Jan-06 12:27N 51°53' E 004°19'0 0.0
2018-Jan-06 12:00N 51°53' E 004°19'0 0.0
2018-Jan-06 11:30N 51°53' E 004°19'0 0.0
2018-Jan-06 10:51N 51°53' E 004°19'0 0.0
2018-Jan-06 10:27N 51°53' E 004°19'0 0.0
2018-Jan-06 10:00N 51°53' E 004°19'0 0.0
2018-Jan-06 09:27N 51°53' E 004°19'0 0.0
2018-Jan-06 08:57N 51°53' E 004°19'0 0.0
2018-Jan-06 08:27N 51°53' E 004°19'0 0.0
2018-Jan-06 08:00N 51°53' E 004°19'0 0.0
2018-Jan-06 07:30N 51°53' E 004°19'0 0.0
2018-Jan-06 06:57N 51°53' E 004°19'0 0.0
2018-Jan-06 06:24N 51°53' E 004°19'0 0.0
2018-Jan-06 06:00N 51°53' E 004°19'0 0.0
2018-Jan-06 05:30N 51°53' E 004°19'0 0.0
2018-Jan-06 04:57N 51°53' E 004°19'0 0.0
2018-Jan-06 04:24N 51°53' E 004°19'0 0.0
2018-Jan-06 03:48N 51°53' E 004°19'0 0.0
2018-Jan-06 03:30N 51°53' E 004°19'0 0.0
2018-Jan-06 02:57N 51°53' E 004°19'0 0.0
2018-Jan-06 02:30N 51°53' E 004°19'0 0.0
2018-Jan-06 02:00N 51°53' E 004°19'0 0.0
2018-Jan-06 01:30N 51°53' E 004°19'0 0.0
2018-Jan-06 01:00N 51°53' E 004°19'0 0.0
2018-Jan-06 00:30N 51°53' E 004°19'0 0.0
2018-Jan-05 23:57N 51°53' E 004°19'0 0.0
2018-Jan-05 23:30N 51°53' E 004°19'0 0.0
2018-Jan-05 22:57N 51°53' E 004°19'0 0.0
2018-Jan-05 22:30N 51°53' E 004°19'0 0.0
2018-Jan-05 22:00N 51°53' E 004°19'0 0.0
2018-Jan-05 21:30N 51°53' E 004°19'0 0.0
2018-Jan-05 21:00N 51°53' E 004°19'0 0.1
2018-Jan-05 20:30N 51°53' E 004°19'1 2.6
2018-Jan-05 20:00N 51°53' E 004°21'0 0.9
2018-Jan-05 19:30N 51°53' E 004°20'0 0.0
2018-Jan-05 18:59N 51°53' E 004°20'0 0.0
2018-Jan-05 18:29N 51°53' E 004°20'0 0.0
2018-Jan-05 17:17N 51°53' E 004°20'0 0.0
2018-Jan-05 16:59N 51°53' E 004°20'0 0.0
2018-Jan-05 16:29N 51°53' E 004°20'0 0.0
2018-Jan-05 15:53N 51°53' E 004°20'0 0.0
2018-Jan-05 15:26N 51°53' E 004°20'0 0.0
2018-Jan-05 14:41N 51°53' E 004°20'0 0.0
2018-Jan-05 14:26N 51°53' E 004°20'0 0.0
2018-Jan-05 13:53N 51°53' E 004°20'0 0.0
2018-Jan-05 13:26N 51°53' E 004°20'0 0.0
2018-Jan-05 12:59N 51°53' E 004°20'0 0.0
2018-Jan-05 12:29N 51°53' E 004°20'0 0.0
2018-Jan-05 11:50N 51°53' E 004°20'0 0.0
2018-Jan-05 11:23N 51°53' E 004°20'0 0.0
2018-Jan-05 10:56N 51°53' E 004°20'0 0.0
2018-Jan-05 10:29N 51°53' E 004°20'0 0.0
2018-Jan-05 09:59N 51°53' E 004°20'0 0.0
2018-Jan-05 09:05N 51°53' E 004°20'0 0.1
2018-Jan-05 08:59N 51°53' E 004°20'0 0.0
2018-Jan-05 08:29N 51°53' E 004°20'0 0.0
2018-Jan-05 07:56N 51°53' E 004°20'0 0.0
2018-Jan-05 07:26N 51°53' E 004°20'0 0.0
2018-Jan-05 06:59N 51°53' E 004°20'0 0.0
2018-Jan-05 06:26N 51°53' E 004°20'0 0.0
2018-Jan-05 05:59N 51°53' E 004°20'0 0.0
2018-Jan-05 05:29N 51°53' E 004°20'0 0.0
2018-Jan-05 04:50N 51°53' E 004°20'0 0.0
2018-Jan-05 04:29N 51°53' E 004°20'0 0.0
2018-Jan-05 03:59N 51°53' E 004°20'0 0.0
2018-Jan-05 03:29N 51°53' E 004°20'0 0.0
2018-Jan-05 02:59N 51°53' E 004°20'0 0.0
2018-Jan-05 02:29N 51°53' E 004°20'0 0.0
2018-Jan-05 01:59N 51°53' E 004°20'0 0.0
2018-Jan-05 01:26N 51°53' E 004°20'0 0.0
2018-Jan-05 00:59N 51°53' E 004°20'0 0.0
2018-Jan-05 00:29N 51°53' E 004°20'0 0.0
2018-Jan-04 23:59N 51°53' E 004°20'0 0.0
2018-Jan-04 23:23N 51°53' E 004°20'0 0.0
2018-Jan-04 22:53N 51°53' E 004°20'0 0.0
2018-Jan-04 22:26N 51°53' E 004°20'0 0.0
2018-Jan-04 21:59N 51°53' E 004°20'0 0.0
2018-Jan-04 21:29N 51°53' E 004°20'0 0.0
2018-Jan-04 20:47N 51°53' E 004°20'0 0.0
2018-Jan-04 20:29N 51°53' E 004°20'0 0.0
2018-Jan-04 19:59N 51°53' E 004°20'0 0.0
2018-Jan-04 19:26N 51°53' E 004°20'0 0.0
2018-Jan-04 18:53N 51°53' E 004°20'0 0.0
2018-Jan-04 18:29N 51°53' E 004°20'0 0.0
2018-Jan-04 17:59N 51°53' E 004°20'0 0.0
2018-Jan-04 17:23N 51°53' E 004°20'0 0.0
2018-Jan-04 16:59N 51°53' E 004°20'0 0.0
2018-Jan-04 16:29N 51°53' E 004°20'0 0.0
2018-Jan-04 15:59N 51°53' E 004°20'0 0.0
2018-Jan-04 15:26N 51°53' E 004°20'0 0.0
2018-Jan-04 14:59N 51°53' E 004°20'0 0.0
2018-Jan-04 14:26N 51°53' E 004°20'0 0.0
2018-Jan-04 13:59N 51°53' E 004°20'0 0.0
2018-Jan-04 13:29N 51°53' E 004°20'0 0.0
2018-Jan-04 12:59N 51°53' E 004°20'0 0.0
2018-Jan-04 12:29N 51°53' E 004°20'0 0.0
2018-Jan-04 11:56N 51°53' E 004°20'0 0.0
2018-Jan-04 11:29N 51°53' E 004°20'0 0.0
2018-Jan-04 10:59N 51°53' E 004°20'0 0.0
2018-Jan-04 10:29N 51°53' E 004°20'0 0.0
2018-Jan-04 09:59N 51°53' E 004°20'0 0.0
2018-Jan-04 09:29N 51°53' E 004°20'0 0.0
2018-Jan-04 08:56N 51°53' E 004°20'0 0.0
2018-Jan-04 08:29N 51°53' E 004°20'0 0.0
2018-Jan-04 07:59N 51°53' E 004°20'0 0.0
2018-Jan-04 07:29N 51°53' E 004°20'0 0.0
2018-Jan-04 06:59N 51°53' E 004°20'0 0.0
2018-Jan-04 06:29N 51°53' E 004°20'0 0.0
2018-Jan-04 05:59N 51°53' E 004°20'0 0.0
2018-Jan-04 05:29N 51°53' E 004°20'0 0.0
2018-Jan-04 04:56N 51°53' E 004°20'0 0.0
2018-Jan-04 04:29N 51°53' E 004°20'0 0.0
2018-Jan-04 03:59N 51°53' E 004°20'0 0.0
2018-Jan-04 03:29N 51°53' E 004°20'0 0.0
2018-Jan-04 02:59N 51°53' E 004°20'0 0.0
2018-Jan-04 02:29N 51°53' E 004°20'0 0.0
2018-Jan-04 01:59N 51°53' E 004°20'0 0.0
2018-Jan-04 01:29N 51°53' E 004°20'0 0.0
2018-Jan-04 00:59N 51°53' E 004°20'0 0.0
2018-Jan-04 00:29N 51°53' E 004°20'0 0.0
2018-Jan-03 23:59N 51°53' E 004°20'0 0.0
2018-Jan-03 23:29N 51°53' E 004°20'0 0.0
2018-Jan-03 22:59N 51°53' E 004°20'0 0.0
2018-Jan-03 22:29N 51°53' E 004°20'0 0.0
2018-Jan-03 21:59N 51°53' E 004°20'0 0.0
2018-Jan-03 21:29N 51°53' E 004°20'0 0.0
2018-Jan-03 20:50N 51°53' E 004°20'0 0.0
2018-Jan-03 20:26N 51°53' E 004°20'0 0.0
2018-Jan-03 19:47N 51°53' E 004°20'0 0.0
2018-Jan-03 19:29N 51°53' E 004°20'0 0.0
2018-Jan-03 18:59N 51°53' E 004°20'0 0.0
2018-Jan-03 18:23N 51°53' E 004°20'0 0.0
2018-Jan-03 17:59N 51°53' E 004°20'0 0.0
2018-Jan-03 17:29N 51°53' E 004°20'0 0.0
2018-Jan-03 16:53N 51°53' E 004°20'0 0.0
2018-Jan-03 16:23N 51°53' E 004°20'0 0.0
2018-Jan-03 15:59N 51°53' E 004°20'0 0.0
2018-Jan-03 15:29N 51°53' E 004°20'0 0.0
2018-Jan-03 14:56N 51°53' E 004°20'0 0.0
2018-Jan-03 14:26N 51°53' E 004°20'0 0.0
2018-Jan-03 13:59N 51°53' E 004°20'0 0.0
2018-Jan-03 13:29N 51°53' E 004°20'0 0.0
2018-Jan-03 12:56N 51°53' E 004°20'0 0.0
2018-Jan-03 12:29N 51°53' E 004°20'0 0.0
2018-Jan-03 11:59N 51°53' E 004°20'0 0.0
2018-Jan-03 11:29N 51°53' E 004°20'0 0.0
2018-Jan-03 10:59N 51°53' E 004°20'0 0.0
2018-Jan-03 10:23N 51°53' E 004°20'0 0.0
2018-Jan-03 09:56N 51°53' E 004°20'0 0.0
2018-Jan-03 09:29N 51°53' E 004°20'0 0.0
2018-Jan-03 08:53N 51°53' E 004°20'0 0.0
2018-Jan-03 08:29N 51°53' E 004°20'0 0.0
2018-Jan-03 07:53N 51°53' E 004°20'0 0.0
2018-Jan-03 07:29N 51°53' E 004°20'0 0.0
2018-Jan-03 06:56N 51°53' E 004°20'0 0.0
2018-Jan-03 06:29N 51°53' E 004°20'0 0.0
2018-Jan-03 05:59N 51°53' E 004°20'0 0.0
2018-Jan-03 05:23N 51°53' E 004°20'0 0.0
2018-Jan-03 04:59N 51°53' E 004°20'0 0.0
2018-Jan-03 04:29N 51°53' E 004°20'0 0.0
2018-Jan-03 03:56N 51°53' E 004°20'0 0.0
2018-Jan-03 03:29N 51°53' E 004°20'0 0.0
2018-Jan-03 02:59N 51°53' E 004°20'0 0.0
2018-Jan-03 02:29N 51°53' E 004°20'0 0.0
2018-Jan-03 01:59N 51°53' E 004°20'0 0.0
2018-Jan-03 01:29N 51°53' E 004°20'0 0.0
2018-Jan-03 00:59N 51°53' E 004°20'0 0.0
2018-Jan-03 00:29N 51°53' E 004°20'0 0.0
2018-Jan-02 23:53N 51°53' E 004°20'0 0.0
2018-Jan-02 23:26N 51°53' E 004°20'0 0.0
2018-Jan-02 22:59N 51°53' E 004°20'0 0.0
2018-Jan-02 22:26N 51°53' E 004°20'0 0.0
2018-Jan-02 21:59N 51°53' E 004°20'0 0.0
2018-Jan-02 21:29N 51°53' E 004°20'0 0.0
2018-Jan-02 20:59N 51°53' E 004°20'0 0.0
2018-Jan-02 20:20N 51°53' E 004°20'0 0.0
2018-Jan-02 19:59N 51°53' E 004°20'0 0.0
2018-Jan-02 19:29N 51°53' E 004°20'0 0.0
2018-Jan-02 18:53N 51°53' E 004°20'0 0.0
2018-Jan-02 18:26N 51°53' E 004°20'0 0.0
2018-Jan-02 17:59N 51°53' E 004°20'0 0.0
2018-Jan-02 17:23N 51°53' E 004°20'0 0.0
2018-Jan-02 16:59N 51°53' E 004°20'0 0.0
2018-Jan-02 16:26N 51°53' E 004°20'0 0.0
2018-Jan-02 15:59N 51°53' E 004°20'0 0.0
2018-Jan-02 15:29N 51°53' E 004°20'  

Dump ship's entire track history